KGGP

Logansport / Cass County Airport

Logansport, Indiana, USA
METAR KGGP 161615Z AUTO 25009KT 10SM SCT016 SCT025 OVC035 01/00 A2996 RMK AO2
Observed Flight Rules
Nov-16 @ 16:15 UTC (29 minutes ago) Visual Flight Rules
Wind Visibility Clouds
250° at 9 knots 10 miles
  • Scattered at 1,600' AGL
  • Scattered at 2,500' AGL
  • Overcast at 3,500' AGL
Temperatures Readings
Current 1°C / 34°F
Dewpoint 0°C / 32°F
Humidity 93%
Altimeter 29.96" Hg
Pressure 1015 hPa
Elevation 225
METAR KGGP 161615Z AUTO 25009KT 10SM SCT016 SCT025 OVC035 01/00 A2996 RMK AO2
Observed Flight Rules
Nov-16 @ 16:15 UTC
(29 minutes ago)
VFR
Wind Visibility
250° at 9 knots 10 miles
Clouds
  • Scattered at 1,600' AGL
  • Scattered at 2,500' AGL
  • Overcast at 3,500' AGL
Temperature Dewpoint
1°C / 34°F 0°C / 32°F
Humidity Altimeter Pressure
93% 29.96" Hg 1015 hPa